createdAt,value
2018-05-15T00:00:20.222Z,12.47
2018-05-15T00:03:03.070Z,12.46
2018-05-15T00:05:36.558Z,12.30
2018-05-15T00:08:09.066Z,12.19
2018-05-15T00:10:43.301Z,12.12
2018-05-15T00:13:15.549Z,12.08
2018-05-15T00:18:30.922Z,12.07
2018-05-15T00:21:03.769Z,12.07
2018-05-15T00:23:36.858Z,12.05
2018-05-15T00:26:09.890Z,12.05
2018-05-15T00:31:19.387Z,12.23
2018-05-15T00:33:58.659Z,12.32
2018-05-15T00:36:33.640Z,12.49
2018-05-15T00:41:45.053Z,12.66
2018-05-15T00:44:17.955Z,12.66
2018-05-15T00:46:50.296Z,12.66
2018-05-15T00:52:00.323Z,12.93
2018-05-15T00:54:33.787Z,12.83
2018-05-15T00:57:06.779Z,12.87
2018-05-15T00:59:39.269Z,12.86
2018-05-15T01:02:11.274Z,12.80
2018-05-15T01:04:53.733Z,12.79
2018-05-15T01:07:27.272Z,12.69
2018-05-15T01:09:58.346Z,12.64
2018-05-15T01:12:30.931Z,12.43
2018-05-15T01:14:59.973Z,12.15
2018-05-15T01:17:30.074Z,12.19
2018-05-15T01:19:59.306Z,12.13
2018-05-15T01:22:28.369Z,12.02
2018-05-15T01:24:57.458Z,12.09
2018-05-15T01:27:29.526Z,12.20
2018-05-15T01:29:58.655Z,12.29
2018-05-15T01:32:27.718Z,12.39
2018-05-15T01:34:56.786Z,12.31
2018-05-15T01:37:25.864Z,12.35
2018-05-15T01:39:54.928Z,12.35
2018-05-15T01:42:23.989Z,12.30
2018-05-15T01:44:53.446Z,12.27
2018-05-15T01:47:22.489Z,12.24
2018-05-15T01:53:11.304Z,12.30
2018-05-15T01:55:40.375Z,12.04
2018-05-15T01:58:09.560Z,11.91
2018-05-15T02:00:38.642Z,11.87
2018-05-15T02:05:44.004Z,11.82
2018-05-15T02:08:13.063Z,11.75
2018-05-15T02:10:42.920Z,11.75
2018-05-15T02:13:12.058Z,11.72
2018-05-15T02:15:41.148Z,11.64
2018-05-15T02:18:10.210Z,11.61
2018-05-15T02:20:39.737Z,11.57
2018-05-15T02:23:08.814Z,11.49
2018-05-15T02:25:38.856Z,11.46
2018-05-15T02:30:44.660Z,11.52
2018-05-15T02:33:13.735Z,11.44
2018-05-15T02:35:43.129Z,11.40
2018-05-15T02:38:12.631Z,11.37
2018-05-15T02:40:42.435Z,11.29
2018-05-15T02:43:12.330Z,11.19
2018-05-15T02:45:41.390Z,11.14
2018-05-15T02:48:11.229Z,11.17
2018-05-15T02:50:40.321Z,11.02
2018-05-15T02:53:09.826Z,11.05
2018-05-15T02:55:38.863Z,11.12
2018-05-15T02:58:08.114Z,11.25
2018-05-15T03:00:37.165Z,11.17
2018-05-15T03:03:06.250Z,11.25
2018-05-15T03:08:12.223Z,11.26
2018-05-15T03:10:41.920Z,11.22
2018-05-15T03:13:10.987Z,11.14
2018-05-15T03:15:41.079Z,11.13
2018-05-15T03:18:10.198Z,11.29
2018-05-15T03:20:39.361Z,11.24
2018-05-15T03:23:09.370Z,11.31
2018-05-15T03:25:38.438Z,11.28
2018-05-15T03:28:07.551Z,11.36
2018-05-15T03:30:36.910Z,11.38
2018-05-15T03:33:05.986Z,11.37
2018-05-15T03:35:35.750Z,11.43
2018-05-15T03:38:04.821Z,11.45
2018-05-15T03:43:11.434Z,11.59
2018-05-15T03:45:40.864Z,11.72
2018-05-15T03:48:09.891Z,11.69
2018-05-15T03:50:40.613Z,11.69
2018-05-15T03:53:09.642Z,11.68
2018-05-15T03:58:15.207Z,11.91
2018-05-15T04:06:07.976Z,12.17
2018-05-15T04:08:37.039Z,12.16
2018-05-15T04:11:06.216Z,12.13
2018-05-15T04:13:35.248Z,12.33
2018-05-15T04:16:04.784Z,12.37
2018-05-15T04:18:33.837Z,12.33
2018-05-15T04:21:04.292Z,12.39
2018-05-15T04:23:36.739Z,12.50
2018-05-15T04:28:41.591Z,12.77
2018-05-15T04:31:14.946Z,12.76
2018-05-15T04:33:44.410Z,12.96
2018-05-15T04:38:49.370Z,13.12
2018-05-15T04:41:18.394Z,13.14
2018-05-15T04:43:47.687Z,13.24
2018-05-15T04:46:17.210Z,13.34
2018-05-15T04:48:46.267Z,13.22
2018-05-15T04:51:15.347Z,13.21
2018-05-15T04:53:44.422Z,13.31
2018-05-15T04:58:49.929Z,13.43
2018-05-15T05:01:18.990Z,13.49
2018-05-15T05:03:48.538Z,13.55
2018-05-15T05:06:17.594Z,13.65
2018-05-15T05:08:46.656Z,13.94
2018-05-15T05:11:15.708Z,14.04
2018-05-15T05:13:44.799Z,14.19
2018-05-15T05:16:13.862Z,14.29
2018-05-15T05:18:43.338Z,14.40
2018-05-15T05:21:12.446Z,14.42
2018-05-15T05:23:43.410Z,14.42
2018-05-15T05:26:15.905Z,14.40
2018-05-15T05:28:48.432Z,14.14
2018-05-15T05:31:17.498Z,14.08
2018-05-15T05:33:47.294Z,13.95
2018-05-15T05:36:16.409Z,13.88
2018-05-15T05:38:46.156Z,13.88
2018-05-15T05:41:15.223Z,13.82
2018-05-15T05:43:44.702Z,13.87
2018-05-15T05:46:15.877Z,13.66
2018-05-15T05:48:44.926Z,13.66
2018-05-15T05:51:15.857Z,13.85
2018-05-15T05:53:44.922Z,13.86
2018-05-15T05:56:14.789Z,14.03
2018-05-15T05:58:43.847Z,14.40
2018-05-15T06:01:16.564Z,14.91
2018-05-15T06:03:45.744Z,15.31
2018-05-15T06:06:15.140Z,15.58
2018-05-15T06:08:44.213Z,15.97
2018-05-15T06:11:13.545Z,16.09
2018-05-15T06:16:19.230Z,16.73
2018-05-15T06:18:49.062Z,16.71
2018-05-15T06:21:18.109Z,16.81
2018-05-15T06:23:51.550Z,16.95
2018-05-15T06:26:25.896Z,16.55
2018-05-15T06:28:57.641Z,17.14
2018-05-15T06:34:06.567Z,17.66
2018-05-15T06:36:39.803Z,17.80
2018-05-15T06:39:12.612Z,17.30
2018-05-15T06:41:45.579Z,17.13
2018-05-15T06:46:56.665Z,17.42
2018-05-15T06:52:03.739Z,17.31
2018-05-15T06:54:38.803Z,17.93
2018-05-15T06:57:10.494Z,17.86
2018-05-15T06:59:42.816Z,17.82
2018-05-15T07:02:15.658Z,17.48
2018-05-15T07:04:47.752Z,17.83
2018-05-15T07:07:22.295Z,17.64
2018-05-15T07:09:54.533Z,17.94
2018-05-15T07:12:28.178Z,17.92
2018-05-15T07:15:00.278Z,17.80
2018-05-15T07:20:12.068Z,18.25
2018-05-15T07:25:23.235Z,18.29
2018-05-15T07:27:55.281Z,18.49
2018-05-15T07:30:31.518Z,17.98
2018-05-15T07:33:03.613Z,18.39
2018-05-15T07:35:36.723Z,18.60
2018-05-15T07:40:45.832Z,19.25
2018-05-15T07:45:54.999Z,20.02
2018-05-15T07:48:27.045Z,20.21
2018-05-15T07:50:59.880Z,20.47
2018-05-15T07:56:08.980Z,20.10
2018-05-15T08:03:53.625Z,20.96
2018-05-15T08:06:26.159Z,20.67
2018-05-15T08:08:58.221Z,20.40
2018-05-15T08:14:08.064Z,20.82
2018-05-15T08:16:41.087Z,20.36
2018-05-15T08:21:49.881Z,20.15
2018-05-15T08:27:00.548Z,20.46
2018-05-15T08:29:34.927Z,21.20
2018-05-15T08:32:07.757Z,21.63
2018-05-15T08:34:39.969Z,21.18
2018-05-15T08:37:12.270Z,21.05
2018-05-15T08:39:45.600Z,20.72
2018-05-15T08:42:19.874Z,20.72
2018-05-15T08:44:51.850Z,20.89
2018-05-15T08:47:25.382Z,20.92
2018-05-15T08:49:58.325Z,21.54
2018-05-15T08:52:31.581Z,22.59
2018-05-15T08:55:05.290Z,22.88
2018-05-15T08:57:38.090Z,22.93
2018-05-15T09:05:30.406Z,23.08
2018-05-15T09:08:03.540Z,22.45
2018-05-15T09:10:36.741Z,22.04
2018-05-15T09:13:11.422Z,22.64
2018-05-15T09:15:43.915Z,23.59
2018-05-15T09:18:17.316Z,25.46
2018-05-15T09:20:49.112Z,27.56
2018-05-15T09:23:24.918Z,29.08
2018-05-15T09:25:58.356Z,30.52
2018-05-15T09:28:29.155Z,31.45
2018-05-15T09:31:01.149Z,31.19
2018-05-15T09:33:32.491Z,29.95
2018-05-15T09:36:06.455Z,30.29
2018-05-15T09:38:39.643Z,30.36
2018-05-15T09:41:14.190Z,28.31
2018-05-15T09:44:02.554Z,26.26
2018-05-15T09:49:13.092Z,26.90
2018-05-15T09:51:47.153Z,25.56
2018-05-15T09:56:55.196Z,24.68
2018-05-15T09:59:28.135Z,26.62
2018-05-15T10:02:01.157Z,27.33
2018-05-15T10:04:33.817Z,28.09
2018-05-15T10:07:06.457Z,27.64
2018-05-15T10:09:39.887Z,27.40
2018-05-15T10:12:12.117Z,26.20
2018-05-15T10:17:21.934Z,26.10
2018-05-15T10:19:54.558Z,27.43
2018-05-15T10:22:27.511Z,26.38
2018-05-15T10:25:00.169Z,26.74
2018-05-15T10:27:33.046Z,25.86
2018-05-15T10:30:06.532Z,23.33
2018-05-15T10:32:43.579Z,22.88
2018-05-15T10:35:17.334Z,22.22
2018-05-15T10:37:50.459Z,22.32
2018-05-15T10:40:23.699Z,21.99
2018-05-15T10:42:56.820Z,22.21
2018-05-15T10:45:28.935Z,21.43
2018-05-15T10:48:01.841Z,19.67
2018-05-15T10:50:35.345Z,17.78
2018-05-15T10:53:10.164Z,15.78
2018-05-15T10:58:19.781Z,13.78
2018-05-15T11:00:52.345Z,13.21
2018-05-15T11:03:25.533Z,13.03
2018-05-15T11:05:58.647Z,13.16
2018-05-15T11:08:31.602Z,12.86
2018-05-15T11:11:04.521Z,12.84
2018-05-15T11:13:37.710Z,12.56
2018-05-15T11:18:44.689Z,12.52
2018-05-15T11:21:34.104Z,12.40
2018-05-15T11:27:18.069Z,12.51
2018-05-15T11:29:50.562Z,12.36
2018-05-15T11:35:00.263Z,12.62
2018-05-15T11:37:33.670Z,12.77
2018-05-15T11:40:07.090Z,12.87
2018-05-15T11:45:21.003Z,12.94
2018-05-15T11:47:55.784Z,12.81
2018-05-15T11:50:28.644Z,12.90
2018-05-15T11:53:02.559Z,12.67
2018-05-15T12:00:46.772Z,13.19
2018-05-15T12:05:56.550Z,13.28
2018-05-15T12:08:28.911Z,13.15
2018-05-15T12:11:01.199Z,13.17
2018-05-15T12:13:34.400Z,13.28
2018-05-15T12:16:06.989Z,13.21
2018-05-15T12:21:15.942Z,13.69
2018-05-15T12:23:47.990Z,13.85
2018-05-15T12:26:21.236Z,14.08
2018-05-15T12:28:54.040Z,14.05
2018-05-15T12:31:27.234Z,14.24
2018-05-15T12:33:59.343Z,14.09
2018-05-15T12:36:32.419Z,14.23
2018-05-15T12:39:04.462Z,14.44
2018-05-15T12:41:36.784Z,14.90
2018-05-15T12:44:09.837Z,14.96
2018-05-15T12:46:41.272Z,15.34
2018-05-15T12:49:13.862Z,14.58
2018-05-15T12:51:45.714Z,14.46
2018-05-15T12:56:54.689Z,15.97
2018-05-15T12:59:28.139Z,16.20
2018-05-15T13:01:59.631Z,17.26
2018-05-15T13:04:32.546Z,18.44
2018-05-15T13:07:05.005Z,18.93
2018-05-15T13:12:14.523Z,19.18
2018-05-15T13:14:47.175Z,19.16
2018-05-15T13:17:24.603Z,20.22
2018-05-15T13:19:56.192Z,21.81
2018-05-15T13:25:05.134Z,19.23
2018-05-15T13:30:15.377Z,16.34
2018-05-15T13:32:47.465Z,15.27
2018-05-15T13:35:22.470Z,14.73
2018-05-15T13:37:56.195Z,13.96
2018-05-15T13:40:28.888Z,14.34
2018-05-15T13:43:01.427Z,14.44
2018-05-15T13:45:33.881Z,14.52
2018-05-15T13:50:43.155Z,14.89
2018-05-15T13:53:16.751Z,14.62
2018-05-15T13:55:50.427Z,14.96
2018-05-15T13:58:24.046Z,15.07
2018-05-15T14:00:56.651Z,14.86
2018-05-15T14:03:29.675Z,14.85
2018-05-15T14:06:02.766Z,15.02
2018-05-15T14:11:10.899Z,14.85
2018-05-15T14:13:43.107Z,14.67
2018-05-15T14:16:14.880Z,14.87
2018-05-15T14:18:47.268Z,14.84
2018-05-15T14:21:19.825Z,15.11
2018-05-15T14:23:51.096Z,15.18
2018-05-15T14:29:00.161Z,15.79
2018-05-15T14:31:32.988Z,15.87
2018-05-15T14:36:42.278Z,16.02
2018-05-15T14:39:14.830Z,16.09
2018-05-15T14:42:03.550Z,16.31
2018-05-15T14:44:36.256Z,16.23
2018-05-15T14:47:11.103Z,16.11
2018-05-15T14:49:43.692Z,16.29
2018-05-15T14:52:16.940Z,16.91
2018-05-15T14:54:48.937Z,16.88
2018-05-15T14:57:21.767Z,17.11
2018-05-15T14:59:54.747Z,17.26
2018-05-15T15:02:28.367Z,17.08
2018-05-15T15:05:01.061Z,17.65
2018-05-15T15:07:33.723Z,17.83
2018-05-15T15:10:06.597Z,17.60
2018-05-15T15:12:40.265Z,18.29
2018-05-15T15:15:13.131Z,19.40
2018-05-15T15:17:45.563Z,20.06
2018-05-15T15:22:54.863Z,21.88
2018-05-15T15:25:27.069Z,23.07
2018-05-15T15:27:59.232Z,23.98
2018-05-15T15:30:31.972Z,24.45
2018-05-15T15:33:04.825Z,25.40
2018-05-15T15:35:37.816Z,26.06
2018-05-15T15:38:11.245Z,26.44
2018-05-15T15:40:43.725Z,26.57
2018-05-15T15:43:16.728Z,27.77
2018-05-15T15:45:48.791Z,28.08
2018-05-15T15:48:22.503Z,28.57
2018-05-15T15:50:55.161Z,29.18
2018-05-15T15:53:28.352Z,28.94
2018-05-15T15:56:01.603Z,29.84
2018-05-15T15:58:34.929Z,30.14
2018-05-15T16:01:06.488Z,29.10
2018-05-15T16:03:39.700Z,30.34
2018-05-15T16:06:12.831Z,29.92
2018-05-15T16:08:45.008Z,31.17
2018-05-15T16:11:17.881Z,30.78
2018-05-15T16:13:50.239Z,30.58
2018-05-15T16:18:55.996Z,30.45
2018-05-15T16:21:25.042Z,28.13
2018-05-15T16:23:54.786Z,26.34
2018-05-15T16:26:23.854Z,24.22
2018-05-15T16:28:53.702Z,22.75
2018-05-15T16:31:22.753Z,22.45
2018-05-15T16:33:52.066Z,22.02
2018-05-15T16:36:21.142Z,21.66
2018-05-15T16:38:50.602Z,20.48
2018-05-15T16:41:19.651Z,20.39
2018-05-15T16:43:49.293Z,20.32
2018-05-15T16:46:18.341Z,20.15
2018-05-15T16:48:48.141Z,19.69
2018-05-15T16:51:17.246Z,19.65
2018-05-15T16:53:46.814Z,18.75
2018-05-15T16:56:15.862Z,18.43
2018-05-15T16:58:45.011Z,17.74
2018-05-15T17:01:14.138Z,17.35
2018-05-15T17:03:43.212Z,17.11
2018-05-15T17:06:12.245Z,16.92
2018-05-15T17:11:18.998Z,16.73
2018-05-15T17:13:48.879Z,16.31
2018-05-15T17:16:17.842Z,15.80
2018-05-15T17:18:48.350Z,15.45
2018-05-15T17:23:53.142Z,14.93
2018-05-15T17:26:22.286Z,14.96
2018-05-15T17:28:51.310Z,14.95
2018-05-15T17:33:56.616Z,15.03
2018-05-15T17:36:26.445Z,14.96
2018-05-15T17:38:55.482Z,14.85
2018-05-15T17:41:25.601Z,14.81
2018-05-15T17:43:54.656Z,14.71
2018-05-15T17:46:25.407Z,14.53
2018-05-15T17:48:54.466Z,14.28
2018-05-15T17:51:24.130Z,13.91
2018-05-15T17:53:53.174Z,13.63
2018-05-15T17:56:23.242Z,13.32
2018-05-15T17:58:52.301Z,12.98
2018-05-15T18:01:21.387Z,12.88
2018-05-15T18:03:50.448Z,12.65
2018-05-15T18:06:19.760Z,12.49
2018-05-15T18:08:48.833Z,12.44
2018-05-15T18:11:18.414Z,12.31
2018-05-15T18:13:47.486Z,12.43
2018-05-15T18:16:16.982Z,12.30
2018-05-15T18:18:50.159Z,12.21
2018-05-15T18:21:23.221Z,12.25
2018-05-15T18:23:55.410Z,12.42
2018-05-15T18:26:28.985Z,12.65
2018-05-15T18:29:01.457Z,12.63
2018-05-15T18:31:34.313Z,12.60
2018-05-15T18:34:07.283Z,12.55
2018-05-15T18:36:39.591Z,12.46
2018-05-15T18:39:12.466Z,12.42
2018-05-15T18:41:44.780Z,12.26
2018-05-15T18:44:17.637Z,11.94
2018-05-15T18:46:50.120Z,11.66
2018-05-15T18:49:23.007Z,11.58
2018-05-15T18:51:56.815Z,11.54
2018-05-15T18:54:29.473Z,11.36
2018-05-15T18:57:01.058Z,10.72
2018-05-15T18:59:32.530Z,10.16
2018-05-15T19:02:03.738Z,10.09
2018-05-15T19:04:36.425Z,10.08
2018-05-15T19:07:07.615Z,10.12
2018-05-15T19:09:39.548Z,10.17
2018-05-15T19:12:11.370Z,10.21
2018-05-15T19:14:42.355Z,10.20
2018-05-15T19:17:13.999Z,10.21
2018-05-15T19:19:45.575Z,10.22
2018-05-15T19:22:15.184Z,10.15
2018-05-15T19:24:46.039Z,10.15
2018-05-15T19:27:16.904Z,10.15
2018-05-15T19:29:47.597Z,10.12
2018-05-15T19:32:18.196Z,10.00
2018-05-15T19:34:54.858Z,9.91
2018-05-15T19:37:26.481Z,9.88
2018-05-15T19:40:00.768Z,9.83
2018-05-15T19:42:31.976Z,9.79
2018-05-15T19:45:03.711Z,9.80
2018-05-15T19:47:34.837Z,9.77
2018-05-15T19:50:06.124Z,9.78
2018-05-15T19:52:36.675Z,9.85
2018-05-15T19:55:07.049Z,9.95
2018-05-15T19:57:38.632Z,10.10
2018-05-15T20:00:10.061Z,10.18
2018-05-15T20:02:41.539Z,10.22
2018-05-15T20:05:13.430Z,10.24
2018-05-15T20:07:45.118Z,10.26
2018-05-15T20:10:17.675Z,10.30
2018-05-15T20:12:48.860Z,10.31
2018-05-15T20:15:19.717Z,10.40
2018-05-15T20:17:50.689Z,10.45
2018-05-15T20:20:21.793Z,10.49
2018-05-15T20:22:52.904Z,10.56
2018-05-15T20:25:24.589Z,10.58
2018-05-15T20:27:56.561Z,10.64
2018-05-15T20:30:28.843Z,10.61
2018-05-15T20:32:59.369Z,10.56
2018-05-15T20:35:30.814Z,10.61
2018-05-15T20:38:03.324Z,10.68
2018-05-15T20:40:34.262Z,10.65
2018-05-15T20:43:06.948Z,10.52
2018-05-15T20:45:39.916Z,10.45
2018-05-15T20:48:12.496Z,10.40
2018-05-15T20:50:44.958Z,10.34
2018-05-15T20:53:17.084Z,10.27
2018-05-15T20:55:49.808Z,10.22
2018-05-15T20:58:21.071Z,10.20
2018-05-15T21:00:53.445Z,10.24
2018-05-15T21:03:25.449Z,10.31
2018-05-15T21:05:58.233Z,10.34
2018-05-15T21:08:30.464Z,10.40
2018-05-15T21:11:03.681Z,10.39
2018-05-15T21:13:36.229Z,10.39
2018-05-15T21:16:07.726Z,10.39
2018-05-15T21:18:39.769Z,10.42
2018-05-15T21:21:11.810Z,10.43
2018-05-15T21:23:43.912Z,10.40
2018-05-15T21:26:15.744Z,10.40
2018-05-15T21:28:46.920Z,10.35
2018-05-15T21:31:18.071Z,10.33
2018-05-15T21:33:49.835Z,10.40
2018-05-15T21:36:20.825Z,10.49
2018-05-15T21:38:52.495Z,10.39
2018-05-15T21:41:25.106Z,10.26
2018-05-15T21:43:56.986Z,10.24
2018-05-15T21:46:28.416Z,10.22
2018-05-15T21:48:59.518Z,10.19
2018-05-15T21:51:31.384Z,10.14
2018-05-15T21:54:02.852Z,10.08
2018-05-15T21:56:34.098Z,10.05
2018-05-15T21:59:05.103Z,10.11
2018-05-15T22:01:36.483Z,10.06
2018-05-15T22:04:06.797Z,10.07
2018-05-15T22:06:38.548Z,10.07
2018-05-15T22:09:09.686Z,10.04
2018-05-15T22:11:52.379Z,10.02
2018-05-15T22:14:35.466Z,10.01
2018-05-15T22:17:16.875Z,10.00
2018-05-15T22:19:59.652Z,9.94
2018-05-15T22:22:30.132Z,9.89
2018-05-15T22:25:02.244Z,9.86
2018-05-15T22:27:34.004Z,9.83
2018-05-15T22:30:05.145Z,9.80
2018-05-15T22:32:36.354Z,9.76
2018-05-15T22:35:06.838Z,9.71
2018-05-15T22:37:37.845Z,9.59
2018-05-15T22:40:08.529Z,9.54
2018-05-15T22:42:39.519Z,9.48
2018-05-15T22:45:10.724Z,9.48
2018-05-15T22:47:43.263Z,9.40
2018-05-15T22:50:14.847Z,9.32
2018-05-15T22:52:45.798Z,9.28
2018-05-15T22:55:16.705Z,9.24
2018-05-15T22:57:47.432Z,9.20
2018-05-15T23:00:17.895Z,9.19
2018-05-15T23:02:49.923Z,9.15
2018-05-15T23:05:20.743Z,9.21
2018-05-15T23:07:52.149Z,9.21
2018-05-15T23:10:23.015Z,9.18
2018-05-15T23:12:55.947Z,9.19
2018-05-15T23:15:27.805Z,9.16
2018-05-15T23:18:01.641Z,9.16
2018-05-15T23:20:32.878Z,9.13
2018-05-15T23:23:04.605Z,9.09
2018-05-15T23:25:36.811Z,9.08
2018-05-15T23:28:07.900Z,9.10
2018-05-15T23:30:38.983Z,9.10
2018-05-15T23:33:09.543Z,9.11
2018-05-15T23:35:42.056Z,9.06
2018-05-15T23:38:12.857Z,9.04
2018-05-15T23:40:42.745Z,9.02
2018-05-15T23:43:12.273Z,9.04
2018-05-15T23:45:43.142Z,8.99
2018-05-15T23:48:13.671Z,8.99
2018-05-15T23:50:46.075Z,8.98
2018-05-15T23:53:18.182Z,8.93
2018-05-15T23:55:50.935Z,8.98
2018-05-15T23:58:21.751Z,8.98
